Time;durP1;ratioP1;P1;durP2;ratioP2;P2;SDS_P1;SDS_P2;PMS_P1;PMS_P2;Temp;Humidity;BMP_temperature;BMP_pressure;BME280_temperature;BME280_humidity;BME280_pressure;Samples;Min_cycle;Max_cycle;Signal;HPM_P1;HPM_P2
2023/03/29 00:05:24;;;;;;;4.07;2.28;;;12.80;75.20;;;;;;10775344;32;20054;-75
2023/03/29 00:11:26;;;;;;;7.18;4.18;;;12.80;76.00;;;;;;10788389;33;20047;-75
2023/03/29 00:17:29;;;;;;;6.82;5.45;;;12.70;76.90;;;;;;10789415;33;20035;-75
2023/03/29 00:23:33;;;;;;;7.25;4.68;;;12.70;77.50;;;;;;10788572;33;20032;-75
2023/03/29 00:29:36;;;;;;;9.95;5.05;;;12.70;77.30;;;;;;10789155;33;20408;-75
2023/03/29 00:35:41;;;;;;;7.80;5.37;;;12.70;76.60;;;;;;10788577;33;20043;-75
2023/03/29 00:41:48;;;;;;;6.82;4.28;;;12.80;76.70;;;;;;10774227;32;20437;-75
2023/03/29 00:47:57;;;;;;;4.57;2.85;;;12.70;76.80;;;;;;10788001;33;20036;-76
2023/03/29 00:54:00;;;;;;;;;;;12.70;76.80;;;;;;10783764;32;20024;-76
2023/03/29 01:00:04;;;;;;;3.65;2.28;;;12.60;77.00;;;;;;10785217;33;19927;-76
2023/03/29 01:06:08;;;;;;;7.25;3.85;;;12.50;77.10;;;;;;10772629;32;20029;-76
2023/03/29 01:12:18;;;;;;;8.55;3.78;;;12.40;77.40;;;;;;10771496;33;20043;-76
2023/03/29 01:18:21;;;;;;;11.35;4.35;;;12.50;77.40;;;;;;10787353;33;20017;-75
2023/03/29 01:24:33;;;;;;;4.45;2.87;;;12.50;77.20;;;;;;10786647;33;20024;-75
2023/03/29 01:30:47;;;;;;;3.92;2.42;;;12.50;77.30;;;;;;10787629;33;20024;-75
2023/03/29 01:37:26;;;;;;;5.03;2.90;;;12.50;77.70;;;;;;10786980;33;20013;-75
2023/03/29 01:43:32;;;;;;;5.10;2.20;;;12.50;78.20;;;;;;10710022;32;20063;-75
2023/03/29 01:50:05;;;;;;;6.32;4.30;;;12.40;78.20;;;;;;10715417;33;20059;-75
2023/03/29 01:56:13;;;;;;;5.75;3.67;;;12.40;78.80;;;;;;10705007;33;20047;-76
2023/03/29 02:02:18;;;;;;;3.65;2.22;;;12.30;79.10;;;;;;10715699;33;20061;-76
2023/03/29 02:08:22;;;;;;;6.43;4.57;;;12.30;78.90;;;;;;10716546;32;20037;-76
2023/03/29 02:14:25;;;;;;;4.75;3.17;;;12.20;78.80;;;;;;10718814;32;20071;-76
2023/03/29 02:20:38;;;;;;;5.57;3.92;;;12.30;78.90;;;;;;10792213;33;20330;-76
2023/03/29 02:26:42;;;;;;;6.28;4.32;;;12.20;79.00;;;;;;10777892;32;20036;-76
2023/03/29 02:33:00;;;;;;;4.30;2.58;;;12.20;78.50;;;;;;10791845;33;20055;-76
2023/03/29 02:39:04;;;;;;;5.97;4.00;;;12.20;78.40;;;;;;10788935;33;20035;-75
2023/03/29 02:45:09;;;;;;;5.37;3.80;;;12.10;78.60;;;;;;10788452;33;20029;-75
2023/03/29 02:51:22;;;;;;;6.22;4.15;;;12.00;78.80;;;;;;10791385;32;20017;-76
2023/03/29 02:57:25;;;;;;;7.93;4.47;;;12.00;78.70;;;;;;10840662;32;20063;-76
2023/03/29 03:03:28;;;;;;;8.05;4.10;;;11.90;78.90;;;;;;10792079;33;20016;-76
2023/03/29 03:09:30;;;;;;;5.40;3.50;;;11.90;79.20;;;;;;10764687;33;20036;-76
2023/03/29 03:15:36;;;;;;;5.95;4.35;;;11.90;79.30;;;;;;10791259;33;20031;-76
2023/03/29 03:21:38;;;;;;;7.03;4.35;;;11.80;79.50;;;;;;10791074;33;20050;-76
2023/03/29 03:27:40;;;;;;;4.65;3.25;;;11.80;79.90;;;;;;10790268;33;20034;-75
2023/03/29 03:33:43;;;;;;;8.05;6.40;;;11.80;79.90;;;;;;10777086;32;20033;-76
2023/03/29 03:39:48;;;;;;;6.50;3.95;;;11.70;79.60;;;;;;10789900;33;20016;-75
2023/03/29 03:45:52;;;;;;;5.37;4.37;;;11.60;79.70;;;;;;10790328;33;20264;-75
2023/03/29 03:52:28;;;;;;;4.78;2.83;;;11.60;79.60;;;;;;10776227;32;20020;-76
2023/03/29 03:58:30;;;;;;;4.53;3.55;;;11.80;79.80;;;;;;10776316;33;20021;-76
2023/03/29 04:04:33;;;;;;;3.70;2.28;;;11.80;79.30;;;;;;10788680;33;20047;-76
2023/03/29 04:10:36;;;;;;;4.82;3.50;;;12.00;79.50;;;;;;10789043;33;20024;-75
2023/03/29 04:16:39;;;;;;;2.90;2.22;;;12.10;79.70;;;;;;10789512;33;20342;-76
2023/03/29 04:22:43;;;;;;;5.22;3.20;;;12.20;79.80;;;;;;10789708;32;20050;-75
2023/03/29 04:28:46;;;;;;;3.87;2.15;;;12.10;79.40;;;;;;10788475;33;20382;-75
2023/03/29 04:34:49;;;;;;;4.57;2.30;;;11.80;78.90;;;;;;10787908;32;20020;-76
2023/03/29 04:40:53;;;;;;;4.72;2.97;;;11.80;79.40;;;;;;10788592;32;20012;-76
2023/03/29 04:46:56;;;;;;;4.72;2.50;;;11.90;79.90;;;;;;10789203;33;20025;-76
2023/03/29 04:53:00;;;;;;;4.53;2.30;;;12.00;79.70;;;;;;10758791;32;20037;-75
2023/03/29 04:59:03;;;;;;;3.80;2.33;;;12.00;79.70;;;;;;10788573;33;20028;-75
2023/03/29 05:05:05;;;;;;;3.80;1.98;;;12.20;80.10;;;;;;10787383;32;20024;-75
2023/03/29 05:11:09;;;;;;;3.85;2.58;;;12.30;80.10;;;;;;10786842;33;20094;-75
2023/03/29 05:17:12;;;;;;;3.72;2.40;;;12.40;80.00;;;;;;10799011;32;20342;-76
2023/03/29 05:23:16;;;;;;;2.15;1.70;;;12.50;80.10;;;;;;10791505;33;20056;-76
2023/03/29 05:29:22;;;;;;;4.45;2.97;;;12.60;80.20;;;;;;10794400;33;20042;-76
2023/03/29 05:35:25;;;;;;;2.78;1.90;;;12.80;79.60;;;;;;10843307;32;20068;-75
2023/03/29 05:41:28;;;;;;;3.53;2.25;;;12.90;79.30;;;;;;10792477;33;20012;-75
2023/03/29 05:47:43;;;;;;;6.57;4.53;;;13.00;79.00;;;;;;10842808;32;20155;-75
2023/03/29 05:53:45;;;;;;;5.00;3.42;;;12.90;79.00;;;;;;10792408;32;20479;-75
2023/03/29 05:59:48;;;;;;;7.93;4.22;;;13.10;79.50;;;;;;10776991;33;20395;-76
2023/03/29 06:06:02;;;;;;;6.25;3.40;;;13.20;79.20;;;;;;10816330;32;20325;-75
2023/03/29 06:12:06;;;;;;;3.35;2.60;;;13.20;79.60;;;;;;10829797;33;20055;-75
2023/03/29 06:18:09;;;;;;;3.47;1.90;;;13.30;79.60;;;;;;10815094;33;20020;-75
2023/03/29 06:24:12;;;;;;;6.50;4.00;;;13.40;80.00;;;;;;10824523;33;20402;-75
2023/03/29 06:30:15;;;;;;;6.45;3.47;;;13.50;81.10;;;;;;10828827;32;20055;-76
2023/03/29 06:36:20;;;;;;;4.32;2.87;;;13.40;81.40;;;;;;10852868;32;20031;-76
2023/03/29 06:42:23;;;;;;;5.60;3.65;;;13.40;81.80;;;;;;10828885;33;20051;-75
2023/03/29 06:48:31;;;;;;;6.30;3.40;;;13.30;81.50;;;;;;10819620;33;20024;-75
2023/03/29 06:54:34;;;;;;;4.53;2.90;;;13.10;80.40;;;;;;10790624;32;20398;-75
2023/03/29 07:00:38;;;;;;;3.28;2.45;;;12.80;81.40;;;;;;10764709;33;20098;-76
2023/03/29 07:06:47;;;;;;;4.20;3.70;;;12.90;82.10;;;;;;10777675;32;20071;-76
2023/03/29 07:12:51;;;;;;;4.20;3.28;;;13.10;82.40;;;;;;10790640;33;20432;-75
2023/03/29 07:18:54;;;;;;;4.82;3.75;;;13.20;82.60;;;;;;10791451;33;20039;-75
2023/03/29 07:24:58;;;;;;;6.70;3.47;;;13.00;81.40;;;;;;10790195;33;20024;-75
2023/03/29 07:31:05;;;;;;;3.90;2.90;;;13.20;81.90;;;;;;10790686;33;20318;-76
2023/03/29 07:37:08;;;;;;;4.60;3.35;;;13.30;81.40;;;;;;10788413;33;20444;-75
2023/03/29 07:43:13;;;;;;;4.37;2.80;;;13.40;82.20;;;;;;10775114;33;20409;-76
2023/03/29 07:49:15;;;;;;;6.53;4.03;;;13.40;82.10;;;;;;10840790;27;20414;-76
2023/03/29 07:55:18;;;;;;;3.37;2.33;;;13.20;81.60;;;;;;10839925;32;20013;-75
2023/03/29 08:01:24;;;;;;;3.90;2.37;;;13.30;81.70;;;;;;10788763;33;20054;-76
2023/03/29 08:07:31;;;;;;;3.35;2.58;;;13.50;82.10;;;;;;10789199;33;20042;-76
2023/03/29 08:13:36;;;;;;;5.68;3.35;;;13.80;82.00;;;;;;10838643;32;20056;-76
2023/03/29 08:19:41;;;;;;;5.40;3.35;;;13.70;81.60;;;;;;10789298;33;20039;-76
2023/03/29 08:25:45;;;;;;;8.70;5.28;;;13.90;82.40;;;;;;10787784;33;20032;-76
2023/03/29 08:31:48;;;;;;;3.75;3.17;;;14.00;82.10;;;;;;10787943;33;20016;-75
2023/03/29 08:37:50;;;;;;;6.28;3.75;;;14.00;81.50;;;;;;10787214;33;20358;-76
2023/03/29 08:44:03;;;;;;;4.68;3.03;;;14.00;81.10;;;;;;10787451;33;20024;-75
2023/03/29 08:50:08;;;;;;;4.85;3.22;;;14.00;81.30;;;;;;10892301;32;20026;-75
2023/03/29 08:56:19;;;;;;;6.05;3.17;;;14.10;80.80;;;;;;10960749;32;20549;-76
2023/03/29 09:02:27;;;;;;;3.72;2.60;;;14.10;79.80;;;;;;10980175;32;20015;-76
2023/03/29 09:08:31;;;;;;;2.28;1.85;;;14.00;80.00;;;;;;10978755;32;20019;-76
2023/03/29 09:15:05;;;;;;;4.47;3.00;;;14.10;80.30;;;;;;10962248;32;20065;-76
2023/03/29 09:21:35;;;;;;;5.55;2.60;;;14.20;80.40;;;;;;10965339;32;20400;-76
2023/03/29 09:27:49;;;;;;;3.40;2.28;;;14.20;80.40;;;;;;10966874;32;20038;-75
2023/03/29 09:34:10;;;;;;;2.15;1.70;;;14.20;79.30;;;;;;10974275;32;20022;-76
2023/03/29 09:40:29;;;;;;;8.05;3.72;;;14.20;79.80;;;;;;10965895;32;20081;-75
2023/03/29 09:46:36;;;;;;;3.08;2.45;;;14.40;79.90;;;;;;10978759;32;20019;-75
2023/03/29 09:52:39;;;;;;;3.45;2.22;;;14.50;79.40;;;;;;10978426;32;20052;-75
2023/03/29 09:58:45;;;;;;;2.65;2.42;;;14.50;79.50;;;;;;10964017;32;20026;-75
2023/03/29 10:04:59;;;;;;;4.97;2.85;;;14.60;80.00;;;;;;10977535;32;20388;-75
2023/03/29 10:11:27;;;;;;;3.08;2.40;;;14.70;78.70;;;;;;10970799;32;20030;-76
2023/03/29 10:17:38;;;;;;;3.45;2.33;;;14.70;79.90;;;;;;10984470;32;20092;-76
2023/03/29 10:23:42;;;;;;;3.83;2.72;;;14.80;77.50;;;;;;10984751;32;20029;-76
2023/03/29 10:29:45;;;;;;;2.95;2.22;;;14.80;77.60;;;;;;10984701;32;20042;-76
2023/03/29 10:35:48;;;;;;;4.68;2.78;;;15.10;77.90;;;;;;10983899;32;20019;-75
2023/03/29 10:41:52;;;;;;;9.57;3.75;;;15.20;77.40;;;;;;10984829;32;20049;-76
2023/03/29 10:47:56;;;;;;;4.80;2.97;;;15.20;74.30;;;;;;10984639;32;20049;-75
2023/03/29 10:54:00;;;;;;;3.30;2.33;;;15.30;76.10;;;;;;10983319;32;20054;-76
2023/03/29 11:00:34;;;;;;;3.40;2.50;;;15.60;77.00;;;;;;10969460;32;20337;-76
2023/03/29 11:06:51;;;;;;;3.90;3.08;;;16.10;76.60;;;;;;10969601;32;20384;-76
2023/03/29 11:13:23;;;;;;;5.57;3.15;;;16.20;74.20;;;;;;10969640;32;20002;-76
2023/03/29 11:19:56;;;;;;;4.62;2.97;;;16.60;74.60;;;;;;10978516;32;20057;-76
2023/03/29 11:25:58;;;;;;;3.03;2.08;;;16.80;73.40;;;;;;10981436;32;20015;-76
2023/03/29 11:32:06;;;;;;;4.22;2.72;;;17.10;71.30;;;;;;10982912;32;20019;-75
2023/03/29 11:38:56;;;;;;;4.32;2.65;;;17.20;71.20;;;;;;10980523;32;20037;-75
2023/03/29 11:45:25;;;;;;;8.80;6.03;;;17.40;70.60;;;;;;10827665;32;20028;-74
2023/03/29 11:51:42;;;;;;;8.23;3.70;;;17.50;66.60;;;;;;10828470;32;20054;-75
2023/03/29 11:57:57;;;;;;;7.87;5.43;;;17.50;67.30;;;;;;10824705;32;20020;-76
2023/03/29 12:04:06;;;;;;;7.47;4.97;;;17.80;68.30;;;;;;10827409;32;20060;-75
2023/03/29 12:10:22;;;;;;;5.15;3.50;;;17.80;66.30;;;;;;10804806;32;20025;-76
2023/03/29 12:16:27;;;;;;;4.43;3.05;;;17.90;67.10;;;;;;10791341;32;20032;-75
2023/03/29 12:22:30;;;;;;;5.32;4.05;;;18.20;68.50;;;;;;10939326;32;20015;-75
2023/03/29 12:28:55;;;;;;;6.68;4.40;;;18.10;65.50;;;;;;10938294;32;20077;-75
2023/03/29 12:35:21;;;;;;;9.80;4.75;;;17.80;63.20;;;;;;10924755;32;20049;-74
2023/03/29 12:41:27;;;;;;;5.80;4.93;;;17.80;64.70;;;;;;10923951;32;20537;-75
2023/03/29 12:47:41;;;;;;;8.90;4.57;;;17.80;66.40;;;;;;10939404;32;20023;-74
2023/03/29 12:53:53;;;;;;;6.95;5.07;;;18.00;65.40;;;;;;10941680;32;20341;-74
2023/03/29 12:59:55;;;;;;;7.40;4.50;;;17.80;63.20;;;;;;10941998;32;20440;-74
2023/03/29 13:06:03;;;;;;;5.70;4.28;;;17.70;62.30;;;;;;10941867;32;20046;-74
2023/03/29 13:12:28;;;;;;;5.75;3.87;;;17.80;63.10;;;;;;10938847;32;20137;-74
2023/03/29 13:18:55;;;;;;;10.88;5.60;;;18.10;63.60;;;;;;10922994;32;20031;-73
2023/03/29 13:25:00;;;;;;;8.43;5.32;;;18.20;61.70;;;;;;10940528;32;20320;-75
2023/03/29 13:31:20;;;;;;;5.68;4.10;;;18.00;60.70;;;;;;10975769;32;20011;-74
2023/03/29 13:37:31;;;;;;;9.90;8.18;;;18.20;61.80;;;;;;10973337;32;20053;-74
2023/03/29 13:43:50;;;;;;;6.15;3.95;;;18.50;62.60;;;;;;10985136;32;20048;-75
2023/03/29 13:49:53;;;;;;;;;;;18.70;60.80;;;;;;10951775;32;20028;-75
2023/03/29 13:55:57;;;;;;;5.10;3.75;;;18.80;61.20;;;;;;10792875;33;20025;-75
2023/03/29 14:02:01;;;;;;;8.18;5.10;;;18.80;60.30;;;;;;10844134;32;20043;-75
2023/03/29 14:08:21;;;;;;;9.25;7.05;;;19.10;61.50;;;;;;10842480;32;20032;-76
2023/03/29 14:14:26;;;;;;;6.70;4.87;;;19.30;60.20;;;;;;10794419;32;20058;-75
2023/03/29 14:20:31;;;;;;;5.35;4.32;;;19.50;61.40;;;;;;10835997;32;20028;-75
2023/03/29 14:26:34;;;;;;;8.70;3.17;;;19.70;61.50;;;;;;10840677;32;20055;-75
2023/03/29 14:32:38;;;;;;;7.45;4.97;;;19.80;60.60;;;;;;10787447;32;20055;-75
2023/03/29 14:38:42;;;;;;;5.12;3.40;;;20.00;61.40;;;;;;10791451;33;20051;-75
2023/03/29 14:44:45;;;;;;;8.80;5.15;;;20.20;61.00;;;;;;10792549;33;20032;-75
2023/03/29 14:50:48;;;;;;;7.55;5.10;;;20.30;60.50;;;;;;10910550;32;20038;-74
2023/03/29 14:56:51;;;;;;;6.10;3.30;;;20.50;59.10;;;;;;10970502;32;20010;-75
2023/03/29 15:02:59;;;;;;;4.25;2.42;;;20.40;58.90;;;;;;10983502;32;20023;-75
2023/03/29 15:09:02;;;;;;;8.60;4.53;;;20.50;57.90;;;;;;10975812;32;20154;-75
2023/03/29 15:15:09;;;;;;;7.87;4.15;;;20.70;58.20;;;;;;10971872;32;20108;-75
2023/03/29 15:21:14;;;;;;;7.20;3.42;;;20.60;56.70;;;;;;10979472;32;20340;-75
2023/03/29 15:27:19;;;;;;;5.20;3.20;;;20.60;58.40;;;;;;10962286;32;20069;-75
2023/03/29 15:33:24;;;;;;;7.47;2.85;;;20.80;56.60;;;;;;10972873;32;20038;-75
2023/03/29 15:39:32;;;;;;;7.43;3.10;;;21.20;55.70;;;;;;10961251;32;20031;-75
2023/03/29 15:45:34;;;;;;;4.45;2.70;;;21.50;55.10;;;;;;10963604;32;20049;-76
2023/03/29 15:51:37;;;;;;;3.72;2.37;;;21.70;53.90;;;;;;10588714;27;9593823;-76
2023/03/29 15:57:43;;;;;;;4.25;2.05;;;22.00;53.10;;;;;;10835924;32;20028;-76
2023/03/29 16:03:46;;;;;;;3.37;1.33;;;22.40;53.10;;;;;;10788619;32;20024;-76
2023/03/29 16:09:48;;;;;;;4.32;1.85;;;22.80;52.70;;;;;;10836846;32;20032;-76
2023/03/29 16:15:50;;;;;;;3.37;1.45;;;23.30;51.90;;;;;;10835868;32;20051;-76
2023/03/29 16:21:53;;;;;;;3.08;2.10;;;23.60;51.40;;;;;;10824159;32;20054;-76
2023/03/29 16:27:55;;;;;;;4.12;1.92;;;23.80;50.80;;;;;;10787297;33;20350;-76
2023/03/29 16:33:57;;;;;;;3.03;2.05;;;23.90;51.90;;;;;;10784310;33;20047;-75
2023/03/29 16:40:00;;;;;;;10.40;5.47;;;24.10;52.20;;;;;;10787976;33;20054;-76
2023/03/29 16:46:02;;;;;;;12.13;10.23;;;24.10;54.00;;;;;;10788341;33;20024;-75
2023/03/29 16:52:04;;;;;;;11.75;7.35;;;22.70;60.70;;;;;;10751274;33;20037;-75
2023/03/29 16:58:07;;;;;;;13.45;7.78;;;21.40;62.90;;;;;;10802048;32;20433;-75
2023/03/29 17:04:10;;;;;;;13.15;9.57;;;20.60;65.00;;;;;;10800960;32;20028;-75
2023/03/29 17:10:13;;;;;;;10.40;6.28;;;19.80;66.60;;;;;;10751399;33;20390;-75
2023/03/29 17:16:16;;;;;;;19.65;9.30;;;19.20;66.90;;;;;;10754149;33;20024;-75
2023/03/29 17:22:18;;;;;;;10.85;8.10;;;18.70;67.40;;;;;;10755256;33;20025;-75
2023/03/29 17:28:21;;;;;;;13.73;8.05;;;18.20;68.40;;;;;;10753507;33;20055;-76
2023/03/29 17:34:23;;;;;;;12.48;6.93;;;17.80;69.50;;;;;;10807528;32;20016;-75
2023/03/29 17:40:25;;;;;;;11.40;7.62;;;17.60;69.90;;;;;;10757173;33;20021;-75
2023/03/29 17:46:28;;;;;;;14.10;8.25;;;17.30;70.30;;;;;;10806745;32;20025;-75
2023/03/29 17:52:30;;;;;;;11.18;7.18;;;17.20;70.50;;;;;;10802083;32;20020;-75
2023/03/29 17:58:32;;;;;;;11.82;8.55;;;17.00;70.90;;;;;;10757056;33;20017;-75
2023/03/29 18:04:35;;;;;;;13.57;8.38;;;16.90;71.50;;;;;;10806863;32;20395;-75
2023/03/29 18:10:37;;;;;;;15.85;9.23;;;16.90;71.70;;;;;;10820292;32;20060;-75
2023/03/29 18:16:40;;;;;;;18.33;10.43;;;16.80;72.10;;;;;;10792025;33;20024;-75
2023/03/29 18:22:43;;;;;;;12.13;6.97;;;16.60;72.60;;;;;;10793165;33;20043;-75
2023/03/29 18:28:46;;;;;;;12.35;10.60;;;16.40;73.10;;;;;;10792151;33;20350;-75
2023/03/29 18:34:48;;;;;;;10.82;8.10;;;16.30;72.40;;;;;;10792787;33;20047;-75
2023/03/29 18:40:50;;;;;;;10.30;6.25;;;16.20;72.80;;;;;;10792643;33;20028;-75
2023/03/29 18:46:53;;;;;;;9.20;6.78;;;16.50;74.30;;;;;;10841508;32;20043;-75
2023/03/29 18:52:55;;;;;;;12.98;7.72;;;16.90;74.70;;;;;;10791004;33;20024;-75
2023/03/29 18:58:57;;;;;;;14.52;9.27;;;17.20;75.00;;;;;;10840400;32;20372;-76
2023/03/29 19:05:00;;;;;;;12.95;6.37;;;17.30;75.00;;;;;;10840933;32;20408;-75
2023/03/29 19:11:04;;;;;;;16.17;8.07;;;17.30;74.90;;;;;;10790593;33;20047;-75
2023/03/29 19:17:08;;;;;;;14.57;7.75;;;17.30;74.70;;;;;;10791299;33;20397;-75
2023/03/29 19:23:10;;;;;;;9.43;7.85;;;17.30;74.50;;;;;;10790708;33;20353;-76
2023/03/29 19:29:14;;;;;;;8.90;6.50;;;17.30;74.40;;;;;;10791270;33;20337;-75
2023/03/29 19:35:20;;;;;;;11.82;7.10;;;17.10;74.60;;;;;;10790617;33;20055;-75
2023/03/29 19:41:25;;;;;;;6.78;5.90;;;16.90;75.20;;;;;;10786003;33;20036;-75
2023/03/29 19:47:27;;;;;;;7.57;5.10;;;16.80;75.40;;;;;;10836306;32;20342;-75
2023/03/29 19:53:32;;;;;;;9.60;5.87;;;16.70;75.50;;;;;;10849274;32;20405;-76
2023/03/29 19:59:39;;;;;;;10.40;7.82;;;16.40;76.00;;;;;;10801887;32;20374;-75
2023/03/29 20:05:43;;;;;;;12.30;9.90;;;16.50;76.10;;;;;;10809360;32;20031;-75
2023/03/29 20:11:46;;;;;;;14.35;6.75;;;16.60;76.00;;;;;;10864760;32;20139;-76
2023/03/29 20:17:52;;;;;;;7.93;6.47;;;16.60;75.80;;;;;;10863259;32;20028;-75
2023/03/29 20:23:56;;;;;;;9.25;6.05;;;16.50;75.90;;;;;;10809429;32;20053;-75
2023/03/29 20:30:00;;;;;;;16.80;12.63;;;16.30;75.90;;;;;;10766733;32;20205;-76
2023/03/29 20:36:03;;;;;;;13.48;10.02;;;16.30;75.50;;;;;;10834184;32;20059;-76
2023/03/29 20:42:08;;;;;;;15.00;10.50;;;16.20;75.70;;;;;;10835262;32;20322;-76
2023/03/29 20:48:13;;;;;;;25.27;16.65;;;16.10;75.90;;;;;;10834623;32;20046;-75
2023/03/29 20:54:17;;;;;;;14.52;10.20;;;16.10;76.00;;;;;;10787626;33;20043;-75
2023/03/29 21:00:19;;;;;;;14.15;10.93;;;16.20;76.40;;;;;;10788585;33;20020;-76
2023/03/29 21:06:23;;;;;;;15.90;9.63;;;16.10;76.40;;;;;;10787230;33;20028;-75
2023/03/29 21:12:25;;;;;;;22.20;15.75;;;16.00;76.40;;;;;;10838547;32;20043;-75
2023/03/29 21:18:27;;;;;;;20.73;15.68;;;16.20;76.50;;;;;;10787902;33;20055;-75
2023/03/29 21:24:31;;;;;;;19.45;14.52;;;16.20;76.60;;;;;;10769883;33;20394;-75
2023/03/29 21:30:33;;;;;;;14.90;11.00;;;16.20;76.80;;;;;;10786714;33;20024;-76
2023/03/29 21:36:35;;;;;;;13.52;10.40;;;16.20;76.80;;;;;;10837153;32;20058;-75
2023/03/29 21:42:37;;;;;;;12.68;9.48;;;16.20;76.90;;;;;;10786627;33;20052;-75
2023/03/29 21:48:40;;;;;;;9.20;7.50;;;16.10;77.00;;;;;;10783504;33;20024;-76
2023/03/29 21:54:42;;;;;;;13.75;9.55;;;16.00;77.10;;;;;;10786287;33;20353;-76
2023/03/29 22:00:46;;;;;;;9.35;6.32;;;16.00;77.00;;;;;;10787876;33;20020;-75
2023/03/29 22:06:48;;;;;;;9.45;7.53;;;16.00;76.90;;;;;;10792082;33;20064;-76
2023/03/29 22:12:51;;;;;;;12.25;8.80;;;16.00;77.00;;;;;;10818641;32;20028;-75
2023/03/29 22:18:53;;;;;;;10.20;7.07;;;16.00;76.80;;;;;;10755954;33;20029;-75
2023/03/29 22:24:55;;;;;;;9.52;6.55;;;16.10;76.80;;;;;;10755709;33;20066;-75
2023/03/29 22:31:01;;;;;;;10.23;7.87;;;16.00;77.20;;;;;;10755180;33;20047;-75
2023/03/29 22:37:04;;;;;;;9.68;7.82;;;16.00;77.50;;;;;;10756269;33;20297;-75
2023/03/29 22:43:06;;;;;;;7.32;4.87;;;15.80;77.40;;;;;;10752084;33;20024;-75
2023/03/29 22:49:08;;;;;;;10.43;5.50;;;15.70;77.60;;;;;;10755486;33;20059;-75
2023/03/29 22:55:10;;;;;;;7.20;4.97;;;15.70;78.00;;;;;;10755736;33;20055;-75
2023/03/29 23:01:12;;;;;;;8.45;5.50;;;15.70;78.60;;;;;;10755431;33;20013;-75
2023/03/29 23:07:15;;;;;;;8.60;5.53;;;15.70;79.10;;;;;;10802763;32;20058;-75
2023/03/29 23:13:24;;;;;;;6.70;4.65;;;15.60;79.80;;;;;;10803949;32;20350;-75
2023/03/29 23:19:26;;;;;;;10.43;5.53;;;15.40;79.90;;;;;;10755544;33;20410;-75
2023/03/29 23:25:28;;;;;;;7.07;5.25;;;15.40;80.10;;;;;;10754097;33;20074;-75
2023/03/29 23:31:32;;;;;;;4.82;3.78;;;15.50;80.40;;;;;;10754549;33;20032;-75
2023/03/29 23:37:34;;;;;;;5.60;4.47;;;15.30;81.10;;;;;;10754286;33;20039;-75
2023/03/29 23:43:39;;;;;;;6.18;4.85;;;15.30;81.10;;;;;;10754117;33;20013;-76
2023/03/29 23:49:44;;;;;;;7.03;5.18;;;15.30;81.60;;;;;;10763897;27;20032;-75
2023/03/29 23:56:14;;;;;;;8.48;6.30;;;15.30;81.40;;;;;;10841404;32;20016;-75
